• Join FlightAware (Why Join?)
  • Login
  • US Flag 
04:53PM EDT


 

Airport Tracker/Info


-or-


 

Live Flight TrackerFlight Track Log ✈ RAX81 ✈ 11-Jul-2013 ✈ KYIP - KORD

Flight Track Log - Related Links

Times and Time Zones

All times are in EDT time to prevent confusion due to time zone crossing. See the RAX81 flight status page for this flight to view local times or setup timezone preferences in your user account.

Time Position Orientation Groundspeed Altitude Reporting Facility
EDT Latitude Longitude Course Direction KTS MPH feet Rate Location/Type
08:23PM 42.2406 -83.5450 234° Southwest 130 150 1,100  Level Cleveland Center
08:24PM 42.2231 -83.5778 234° Southwest 135 155 2,300 1,200 Climbing Cleveland Center
08:25PM 42.1908 -83.6128 219° Southwest 136 157 3,500 780 Climbing Cleveland Center
08:26PM 42.1856 -83.6631 262° West 159 183 4,000 240 Climbing Cleveland Center
08:27PM 42.1922 -83.7222 279° West 183 211 4,000  Level Cleveland Center
08:28PM 42.2025 -83.7983 280° West 185 213 4,000  Level Cleveland Center
08:30PM 42.2137 -83.8808 280° West  Level FlightAware Approximate
08:34PM 42.2658 -84.1981 266° West 180 207 4,000  Level Chicago Center
08:35PM 42.2631 -84.2661 267° West 182 209 4,000  Level Chicago Center
08:36PM 42.2564 -84.3342 262° West 183 211 4,000  Level Chicago Center
08:37PM 42.2416 -84.3486 266° West  Level FlightAware Approximate
08:37PM 42.2525 -84.4008 266° West 181 208 4,000  Level Chicago Center
08:38PM 42.2382 -84.4156 266° West  Level FlightAware Approximate
08:39PM 42.2347 -84.4825 266° West  Level FlightAware Approximate
08:39PM 42.2467 -84.4817 264° West 181 208 4,000  Level Chicago Center
08:40PM 42.2312 -84.5494 266° West  Level FlightAware Approximate
08:40PM 42.2433 -84.5506 266° West 182 209 4,000  Level Chicago Center
08:41PM 42.2394 -84.6194 266° West 183 211 4,000  Level Chicago Center
08:42PM 42.2344 -84.6864 264° West 183 211 4,000  Level Chicago Center
08:43PM 42.2292 -84.7511 264° West 178 205 4,000  Level Chicago Center
08:44PM 42.2236 -84.8317 265° West 181 208 4,000  Level Chicago Center
08:45PM 42.2186 -84.8997 264° West 182 209 4,000  Level Chicago Center
08:46PM 42.2133 -84.9683 264° West 184 212 4,000  Level Chicago Center
08:47PM 42.2092 -85.0364 265° West 184 212 4,000  Level Chicago Center
08:48PM 42.2056 -85.1042 266° West 183 211 4,000  Level Chicago Center
08:49PM 42.2022 -85.1719 266° West 183 211 4,000  Level Chicago Center
08:50PM 42.1975 -85.2544 266° West 184 212 4,000  Level Chicago Center
08:51PM 42.1933 -85.3239 265° West 186 214 4,000  Level Chicago Center
08:52PM 42.1892 -85.3925 265° West 186 214 4,000  Level Chicago Center
08:53PM 42.1850 -85.4614 265° West 186 214 4,000  Level Chicago Center
08:54PM 42.1808 -85.5303 265° West 186 214 4,000  Level Chicago Center
08:55PM 42.1758 -85.6125 265° West 185 213 4,000  Level Chicago Center
08:56PM 42.1722 -85.6806 266° West 183 211 4,000  Level Chicago Center
08:57PM 42.1675 -85.7489 265° West 184 212 4,000  Level Chicago Center
08:58PM 42.1617 -85.8178 264° West 185 213 4,000  Level Chicago Center
08:59PM 42.1575 -85.8858 265° West 184 212 4,000  Level Chicago Center
09:00PM 42.1533 -85.9653 266° West 180 207 4,000  Level Chicago Center
09:01PM 42.1481 -86.0339 264° West 183 211 4,000  Level Chicago Center
09:02PM 42.1439 -86.1017 265° West 183 211 4,000 240 Level Chicago Center
09:03PM 42.1411 -86.1669 267° West 179 206 4,600 540 Climbing Chicago Center
09:04PM 42.1436 -86.2292 273° West 170 196 5,200 660 Climbing Chicago Center
09:05PM 42.1444 -86.3031 271° West 166 191 6,000 660 Climbing Chicago Center
09:06PM 42.1442 -86.3661 270° West 168 193 6,600 540 Climbing Chicago Center
09:08PM 42.1447 -86.4278 271° West 167 192 7,200 480 Climbing Chicago Center
09:09PM 42.1450 -86.4931 270° West 172 198 7,700 360 Climbing Chicago Center
09:10PM 42.1467 -86.5547 272° West 169 194 8,000 120 Climbing Chicago Center
09:11PM 42.1478 -86.6253 271° West 182 209 8,000  Level Chicago Center
09:12PM 42.1497 -86.7106 272° West 193 222 8,000  Level Chicago Center
09:13PM 42.1511 -86.7850 271° West 200 230 8,000  Level Chicago Center
09:14PM 42.1500 -86.8572 269° West 197 227 8,000  Level Chicago Center
09:15PM 42.1508 -86.9308 271° West 198 228 8,000  Level Chicago Center
09:16PM 42.1572 -87.0181 276° West 197 227 8,000  Level Chicago Center
09:17PM 42.1614 -87.0872 275° West 189 217 8,000 -300 Level Chicago Center
09:18PM 42.1681 -87.1642 277° West 204 235 7,500 -540 Descending Chicago Center
09:19PM 42.1733 -87.2419 275° West 210 242 7,000 -300 Descending Chicago Center
09:20PM 42.1786 -87.3139 276° West 200 230 7,000  Level Chicago Center
09:21PM 42.1836 -87.3967 275° West 190 219 7,000  Level Chicago Center
09:22PM 42.1886 -87.4661 276° West 188 216 7,000  Level Chicago Center
09:23PM 42.1922 -87.5361 274° West 189 217 7,000  Level Chicago Center
09:24PM 42.1950 -87.6061 273° West 189 217 7,000  Level Chicago Center
09:25PM 42.1628 -87.6656 234° Southwest 196 226 7,000  Level Chicago Center
09:26PM 42.1233 -87.7344 232° Southwest 196 226 7,000  Level Chicago Center
09:27PM 42.0897 -87.7939 233° Southwest 199 229 7,000  Level Chicago Center
09:28PM 42.0694 -87.8556 246° West 187 215 7,000  Level Chicago Center
09:29PM 42.0667 -87.9000 265° West 186 214 7,000  Level Chicago TRACON
09:30PM 42.0500 -87.9667 251° West 188 216 7,000 -240 Level Chicago TRACON
09:31PM 42.0500 -88.0333 270° West 181 208 6,600 -600 Descending Chicago TRACON
09:32PM 42.0667 -88.1000 289° West 188 216 5,800 -840 Descending Chicago TRACON
09:32PM 42.0700 -88.1386 277° West 189 217 5,400 -720 Descending Chicago Center
09:33PM 42.0658 -88.2017 265° West 193 222 4,700 -1,140 Descending Chicago Center
09:34PM 42.0250 -88.1747 154° Southeast 213 245 3,100 -1,020 Descending Chicago Center
09:35PM 42.0033 -88.0969 111° Southeast 197 227 2,700 -360 Descending Chicago Center
09:36PM 41.9881 -88.0372 109° East 184 212 2,400 -360 Descending Chicago Center
09:38PM 41.9822 -87.9825 98° East 167 192 2,000 -540 Descending Chicago Center
09:39PM 41.9836 -87.9297 88° East 151 174 1,300 -600 Descending Chicago Center
09:40PM 41.9847 -87.8853 88° East 148 170 800 -540 Descending Chicago Center